Time;durP1;ratioP1;P1;durP2;ratioP2;P2;SDS_P1;SDS_P2;PMS_P1;PMS_P2;Temp;Humidity;BMP_temperature;BMP_pressure;BME280_temperature;BME280_humidity;BME280_pressure;Samples;Min_cycle;Max_cycle;Signal;HPM_P1;HPM_P2
2022/04/22 00:01:52;;;;;;;2.17;0.93;;;11.70;99.90;;;;;;5032987;28;20381;-64
2022/04/22 00:04:56;;;;;;;4.28;1.40;;;11.70;99.90;;;;;;5033169;28;20052;-64
2022/04/22 00:08:01;;;;;;;4.93;1.52;;;11.70;99.90;;;;;;5032591;28;20056;-64
2022/04/22 00:14:28;;;;;;;9.73;2.72;;;11.80;99.90;;;;;;5032810;28;20052;-64
2022/04/22 00:17:33;;;;;;;4.63;2.03;;;11.80;99.90;;;;;;5031697;28;20033;-64
2022/04/22 00:20:37;;;;;;;4.13;1.13;;;11.80;99.90;;;;;;5032793;28;20052;-65
2022/04/22 00:23:41;;;;;;;1.77;0.90;;;11.70;99.90;;;;;;5032397;28;20053;-65
2022/04/22 00:26:45;;;;;;;3.45;1.00;;;11.70;99.90;;;;;;5032006;28;20052;-64
2022/04/22 00:29:49;;;;;;;17.00;8.20;;;11.70;99.90;;;;;;5031421;28;20041;-65
2022/04/22 00:32:54;;;;;;;3.55;1.42;;;11.70;99.90;;;;;;5032597;28;20040;-65
2022/04/22 00:35:58;;;;;;;2.75;1.02;;;11.60;99.90;;;;;;5032349;28;20037;-65
2022/04/22 00:39:02;;;;;;;2.33;1.08;;;11.60;99.90;;;;;;5032634;28;20388;-65
2022/04/22 00:42:10;;;;;;;3.00;0.90;;;11.60;99.90;;;;;;5032570;28;20503;-65
2022/04/22 00:45:16;;;;;;;3.97;1.98;;;11.70;99.90;;;;;;5032492;28;20384;-65
2022/04/22 00:48:22;;;;;;;2.67;1.90;;;11.70;99.90;;;;;;5032148;28;20412;-66
2022/04/22 00:51:26;;;;;;;4.63;2.30;;;11.70;99.90;;;;;;5032098;28;20296;-66
2022/04/22 00:54:32;;;;;;;5.07;3.15;;;11.80;99.90;;;;;;5032115;28;20443;-66
2022/04/22 00:57:36;;;;;;;6.00;2.03;;;11.80;99.90;;;;;;5031843;28;20040;-66
2022/04/22 01:00:40;;;;;;;5.75;2.25;;;11.70;99.90;;;;;;5032106;28;20052;-65
2022/04/22 01:10:30;;;;;;;6.50;2.20;;;11.70;99.90;;;;;;5031587;28;20045;-66
2022/04/22 01:13:34;;;;;;;3.70;1.48;;;11.70;99.90;;;;;;5031710;28;20495;-65
2022/04/22 01:16:38;;;;;;;3.42;1.58;;;11.60;99.90;;;;;;5031005;28;20057;-65
2022/04/22 01:19:44;;;;;;;2.97;1.55;;;11.60;99.90;;;;;;5032345;28;20044;-65
2022/04/22 01:22:48;;;;;;;4.43;1.65;;;11.40;99.90;;;;;;5031629;28;20389;-65
2022/04/22 01:25:53;;;;;;;3.47;1.70;;;11.40;99.90;;;;;;5032107;28;20518;-65
2022/04/22 01:28:58;;;;;;;1.77;1.50;;;11.30;99.90;;;;;;5031385;28;20036;-64
2022/04/22 01:32:03;;;;;;;4.25;1.58;;;11.10;99.90;;;;;;5031171;28;20060;-64
2022/04/22 01:35:07;;;;;;;2.10;1.52;;;11.10;99.90;;;;;;5031014;28;20044;-65
2022/04/22 01:38:11;;;;;;;6.65;2.00;;;11.10;99.90;;;;;;5030331;28;20056;-64
2022/04/22 01:41:15;;;;;;;4.15;2.10;;;11.10;99.90;;;;;;5031207;28;20507;-64
2022/04/22 01:44:19;;;;;;;3.67;2.22;;;11.00;99.90;;;;;;5031000;28;20051;-65
2022/04/22 01:47:23;;;;;;;4.75;2.13;;;11.00;99.90;;;;;;5030544;28;20503;-64
2022/04/22 01:50:27;;;;;;;3.75;3.20;;;10.90;99.90;;;;;;5030668;28;20052;-65
2022/04/22 01:53:31;;;;;;;5.18;2.65;;;10.90;99.90;;;;;;5030823;28;20064;-64
2022/04/22 01:56:35;;;;;;;4.10;3.20;;;10.90;99.90;;;;;;5030106;28;20052;-65
2022/04/22 01:59:40;;;;;;;4.65;3.38;;;10.80;99.90;;;;;;5030982;28;20045;-65
2022/04/22 02:02:45;;;;;;;4.88;2.97;;;10.90;99.90;;;;;;5030545;28;20048;-65
2022/04/22 02:05:49;;;;;;;7.35;3.00;;;10.90;99.90;;;;;;5030293;28;20045;-65
2022/04/22 02:08:53;;;;;;;4.30;3.10;;;11.00;99.90;;;;;;5030647;28;20049;-65
2022/04/22 02:11:57;;;;;;;7.05;3.22;;;11.10;99.90;;;;;;5030578;28;20049;-64
2022/04/22 02:15:01;;;;;;;3.50;2.80;;;11.10;99.90;;;;;;5030183;28;20057;-65
2022/04/22 02:18:06;;;;;;;5.57;2.60;;;11.20;99.90;;;;;;5029691;28;20044;-65
2022/04/22 02:21:11;;;;;;;6.93;2.13;;;11.20;99.90;;;;;;5030434;28;20405;-65
2022/04/22 02:24:14;;;;;;;3.88;1.77;;;11.20;99.90;;;;;;5030392;28;20052;-65
2022/04/22 02:30:41;;;;;;;5.22;1.85;;;11.30;99.90;;;;;;5029972;28;20044;-65
2022/04/22 02:33:45;;;;;;;6.38;1.70;;;11.40;99.90;;;;;;5029822;28;20044;-65
2022/04/22 02:36:50;;;;;;;100.28;6.70;;;11.40;99.90;;;;;;5029683;28;20502;-65
2022/04/22 02:39:54;;;;;;;40.35;4.63;;;11.20;99.90;;;;;;5028881;28;20048;-64
2022/04/22 02:46:20;;;;;;;3.97;2.40;;;11.00;99.90;;;;;;5030848;28;20040;-65
2022/04/22 02:49:24;;;;;;;2.58;1.90;;;11.10;99.90;;;;;;5030640;28;20048;-64
2022/04/22 02:52:28;;;;;;;144.60;8.63;;;11.10;99.90;;;;;;5030840;28;20052;-64
2022/04/22 02:55:38;;;;;;;88.25;6.25;;;11.10;99.90;;;;;;5030991;28;20048;-64
2022/04/22 02:58:42;;;;;;;3.50;2.70;;;11.10;99.90;;;;;;5030175;28;20040;-65
2022/04/22 03:01:46;;;;;;;2.92;1.90;;;11.10;99.90;;;;;;5030987;28;20507;-64
2022/04/22 03:04:50;;;;;;;3.53;2.13;;;11.20;99.90;;;;;;5030874;28;20056;-64
2022/04/22 03:07:54;;;;;;;5.25;2.08;;;11.30;99.90;;;;;;5031006;28;20057;-64
2022/04/22 03:10:58;;;;;;;3.38;1.75;;;11.30;99.90;;;;;;5031028;28;20507;-65
2022/04/22 03:14:05;;;;;;;4.63;1.50;;;11.30;99.90;;;;;;5030847;28;20045;-65
2022/04/22 03:17:09;;;;;;;4.70;1.60;;;11.30;99.90;;;;;;5030723;28;20044;-65
2022/04/22 03:20:13;;;;;;;1.75;1.27;;;11.40;99.90;;;;;;5031022;28;20056;-64
2022/04/22 03:23:17;;;;;;;1.70;1.40;;;11.40;99.90;;;;;;5030759;28;20068;-65
2022/04/22 03:26:21;;;;;;;1.83;1.50;;;11.40;99.90;;;;;;5030828;28;20048;-65
2022/04/22 03:29:25;;;;;;;2.55;1.30;;;11.50;99.90;;;;;;5030913;28;20490;-64
2022/04/22 03:32:30;;;;;;;3.05;1.42;;;11.50;99.90;;;;;;5031430;28;20508;-65
2022/04/22 03:35:34;;;;;;;2.17;1.27;;;11.50;99.90;;;;;;5032073;28;20044;-65
2022/04/22 03:38:40;;;;;;;2.05;1.23;;;11.50;99.90;;;;;;5030779;28;20056;-65
2022/04/22 03:41:44;;;;;;;2.15;0.90;;;11.50;99.90;;;;;;5030703;28;20057;-66
2022/04/22 03:44:48;;;;;;;3.30;1.77;;;11.50;99.90;;;;;;5030123;28;20044;-65
2022/04/22 03:47:54;;;;;;;3.53;1.20;;;11.50;99.90;;;;;;5029474;28;20052;-65
2022/04/22 03:50:57;;;;;;;5.28;1.30;;;11.50;99.90;;;;;;5030279;28;20048;-65
2022/04/22 03:54:01;;;;;;;1.55;1.10;;;11.40;99.90;;;;;;5030579;28;20504;-66
2022/04/22 04:00:29;;;;;;;3.75;1.00;;;11.40;99.90;;;;;;5030356;28;20040;-65
2022/04/22 04:03:33;;;;;;;1.42;0.85;;;11.40;99.90;;;;;;5033657;28;20060;-65
2022/04/22 04:06:37;;;;;;;0.90;0.80;;;11.40;99.90;;;;;;5033446;28;20156;-65
2022/04/22 04:16:25;;;;;;;1.83;0.90;;;11.40;99.90;;;;;;5033115;28;20041;-65
2022/04/22 04:26:16;;;;;;;1.33;1.05;;;11.40;99.90;;;;;;5033006;28;20044;-65
2022/04/22 04:29:20;;;;;;;1.10;0.68;;;11.30;99.90;;;;;;5032986;28;20436;-65
2022/04/22 04:32:23;;;;;;;1.27;0.80;;;11.30;99.90;;;;;;5032871;28;20108;-66
2022/04/22 04:35:27;;;;;;;1.95;0.95;;;11.30;99.90;;;;;;5033100;28;20049;-65
2022/04/22 04:38:32;;;;;;;1.17;0.85;;;11.30;99.90;;;;;;5033081;28;20053;-65
2022/04/22 04:41:36;;;;;;;2.70;0.80;;;11.40;99.90;;;;;;5032706;28;20456;-65
2022/04/22 04:44:41;;;;;;;0.68;0.50;;;11.30;99.90;;;;;;5032729;28;20060;-65
2022/04/22 04:47:44;;;;;;;1.33;0.70;;;11.30;99.90;;;;;;5032389;28;20500;-65
2022/04/22 04:50:54;;;;;;;4.28;1.00;;;11.30;99.90;;;;;;5032936;28;20052;-65
2022/04/22 04:53:58;;;;;;;1.35;0.80;;;11.30;99.90;;;;;;5032766;28;20045;-65
2022/04/22 04:57:02;;;;;;;1.00;0.55;;;11.30;99.90;;;;;;5032559;28;20384;-65
2022/04/22 05:00:08;;;;;;;1.75;0.63;;;11.20;99.90;;;;;;5032441;28;20046;-65
2022/04/22 05:03:13;;;;;;;1.75;0.68;;;11.30;99.90;;;;;;5032581;28;20052;-65
2022/04/22 05:06:19;;;;;;;0.88;0.70;;;11.20;99.90;;;;;;5031931;28;20044;-65
2022/04/22 05:09:23;;;;;;;1.42;0.65;;;11.30;99.90;;;;;;5032225;28;20038;-66
2022/04/22 05:12:28;;;;;;;1.17;0.50;;;11.20;99.90;;;;;;5032306;28;20045;-65
2022/04/22 05:15:33;;;;;;;1.10;0.70;;;11.20;99.90;;;;;;5032442;28;20040;-65
2022/04/22 05:18:38;;;;;;;0.85;0.60;;;11.20;99.90;;;;;;5032317;28;20052;-65
2022/04/22 05:21:42;;;;;;;2.10;0.70;;;11.20;99.90;;;;;;5032273;28;20049;-65
2022/04/22 05:24:46;;;;;;;3.22;0.82;;;11.20;99.90;;;;;;5032379;28;20049;-64
2022/04/22 05:27:50;;;;;;;2.97;0.80;;;11.30;99.90;;;;;;5031759;28;20049;-64
2022/04/22 05:34:16;;;;;;;;;;;11.30;99.90;;;;;;5032717;28;20044;-65
2022/04/22 05:37:20;;;;;;;3.53;1.55;;;11.40;99.90;;;;;;5031850;28;20375;-66
2022/04/22 05:40:35;;;;;;;1.20;0.60;;;11.40;99.90;;;;;;5032089;28;20063;-65
2022/04/22 05:43:41;;;;;;;2.78;0.70;;;11.40;99.90;;;;;;5031890;28;20392;-65
2022/04/22 05:46:45;;;;;;;1.63;1.02;;;11.40;99.90;;;;;;5031398;28;20045;-65
2022/04/22 05:49:49;;;;;;;4.05;0.68;;;11.40;99.90;;;;;;5031508;28;20048;-65
2022/04/22 05:52:54;;;;;;;2.30;0.55;;;11.40;99.90;;;;;;5031575;28;20052;-65
2022/04/22 05:55:57;;;;;;;1.58;0.60;;;11.40;99.90;;;;;;5031633;28;20044;-66
2022/04/22 05:59:02;;;;;;;3.40;0.50;;;11.40;99.90;;;;;;5031497;28;20052;-65
2022/04/22 06:02:07;;;;;;;0.85;0.45;;;11.50;99.90;;;;;;5030965;28;20052;-66
2022/04/22 06:05:13;;;;;;;0.88;0.30;;;11.50;99.90;;;;;;5031416;28;20052;-65
2022/04/22 06:11:41;;;;;;;2.20;0.47;;;11.40;99.90;;;;;;5031322;28;20048;-65
2022/04/22 06:14:46;;;;;;;0.70;0.28;;;11.50;99.90;;;;;;5027038;28;20052;-65
2022/04/22 06:17:51;;;;;;;0.50;0.30;;;11.50;99.90;;;;;;5030721;28;20036;-65
2022/04/22 06:20:55;;;;;;;1.48;0.40;;;11.40;99.90;;;;;;5031300;28;20056;-65
2022/04/22 06:23:59;;;;;;;0.82;0.30;;;11.40;99.90;;;;;;5029539;28;20056;-65
2022/04/22 06:27:03;;;;;;;1.65;0.60;;;11.40;99.90;;;;;;5029979;28;20060;-65
2022/04/22 06:30:14;;;;;;;1.65;0.80;;;11.50;99.90;;;;;;5030837;28;20061;-65
2022/04/22 06:33:19;;;;;;;0.30;0.30;;;11.50;99.90;;;;;;5024510;28;20397;-65
2022/04/22 06:36:28;;;;;;;0.35;0.32;;;11.40;99.90;;;;;;5027903;28;20044;-66
2022/04/22 06:45:46;;;;;;;0.75;0.47;;;11.40;99.90;;;;;;5026167;28;20044;-65
2022/04/22 06:46:21;;;;;;;0.95;0.20;;;11.50;99.90;;;;;;5029744;28;20036;-65
2022/04/22 06:49:26;;;;;;;2.92;0.40;;;11.60;99.90;;;;;;5026700;28;20032;-65
2022/04/22 06:52:29;;;;;;;2.35;0.30;;;11.60;99.90;;;;;;5025347;28;20129;-65
2022/04/22 06:55:36;;;;;;;0.65;0.40;;;11.70;99.90;;;;;;5026187;28;20044;-65
2022/04/22 06:58:41;;;;;;;0.30;0.20;;;11.80;99.90;;;;;;5021225;28;20045;-65
2022/04/22 07:01:46;;;;;;;1.98;0.35;;;11.80;99.90;;;;;;5026042;28;20260;-65
2022/04/22 07:04:51;;;;;;;1.67;0.40;;;11.90;99.90;;;;;;5023119;28;20055;-65
2022/04/22 07:07:55;;;;;;;1.55;0.30;;;12.00;99.90;;;;;;5027182;28;20052;-65
2022/04/22 07:11:02;;;;;;;0.38;0.30;;;12.10;99.90;;;;;;5024418;28;20056;-65
2022/04/22 07:14:07;;;;;;;5.93;1.42;;;12.20;99.90;;;;;;5029925;28;20044;-65
2022/04/22 07:17:12;;;;;;;0.60;0.30;;;12.40;99.90;;;;;;5028527;28;20040;-65
2022/04/22 07:20:17;;;;;;;0.75;0.20;;;12.40;99.90;;;;;;5026839;28;20036;-64
2022/04/22 07:23:21;;;;;;;1.10;0.30;;;12.50;99.90;;;;;;5027657;28;20396;-65
2022/04/22 07:26:26;;;;;;;0.63;0.30;;;12.50;99.90;;;;;;5021751;28;20040;-64
2022/04/22 07:29:33;;;;;;;0.80;0.40;;;12.50;99.90;;;;;;5026457;28;20495;-65
2022/04/22 07:32:38;;;;;;;2.55;0.30;;;12.50;99.90;;;;;;5030115;28;20053;-65
2022/04/22 07:35:42;;;;;;;0.70;0.50;;;12.50;99.90;;;;;;5021473;28;20044;-65
2022/04/22 07:38:46;;;;;;;1.10;0.80;;;12.30;99.90;;;;;;5029312;28;20052;-65
2022/04/22 07:41:53;;;;;;;0.70;0.30;;;12.20;99.90;;;;;;5027661;28;20113;-64
2022/04/22 07:48:22;;;;;;;1.63;0.30;;;12.20;99.90;;;;;;5032356;28;20045;-65
2022/04/22 07:51:26;;;;;;;1.05;0.20;;;12.20;99.90;;;;;;5026977;28;20048;-65
2022/04/22 07:54:30;;;;;;;0.73;0.40;;;12.30;99.90;;;;;;5028336;28;20420;-65
2022/04/22 07:57:33;;;;;;;0.77;0.30;;;12.40;99.90;;;;;;5031681;28;20496;-65
2022/04/22 08:00:40;;;;;;;1.08;0.30;;;12.50;99.90;;;;;;5029305;28;20048;-65
2022/04/22 08:03:44;;;;;;;2.92;0.30;;;12.60;99.90;;;;;;5032931;28;20045;-65
2022/04/22 08:06:50;;;;;;;0.15;0.15;;;12.60;99.90;;;;;;5030470;28;20044;-65
2022/04/22 08:09:54;;;;;;;0.32;0.30;;;12.70;99.90;;;;;;5032735;28;20052;-64
2022/04/22 08:12:58;;;;;;;0.95;0.40;;;12.70;99.90;;;;;;5033581;28;20060;-65
2022/04/22 08:16:03;;;;;;;0.38;0.30;;;12.80;99.90;;;;;;5033160;28;20048;-65
2022/04/22 08:19:07;;;;;;;0.73;0.38;;;12.90;99.90;;;;;;5032267;28;20048;-65
2022/04/22 08:22:12;;;;;;;0.30;0.22;;;12.90;99.90;;;;;;5032411;28;20052;-65
2022/04/22 08:25:17;;;;;;;2.75;0.30;;;13.00;99.90;;;;;;5029498;28;20072;-65
2022/04/22 08:28:20;;;;;;;0.45;0.32;;;12.90;99.90;;;;;;5024790;28;20048;-65
2022/04/22 08:31:24;;;;;;;1.30;0.50;;;12.90;99.90;;;;;;5027552;28;20057;-64
2022/04/22 08:34:29;;;;;;;0.73;0.30;;;13.00;99.90;;;;;;5029139;28;20052;-65
2022/04/22 08:37:33;;;;;;;1.20;0.30;;;13.10;99.90;;;;;;5019512;28;20040;-65
2022/04/22 08:40:38;;;;;;;0.90;0.40;;;13.30;99.90;;;;;;5022375;28;20036;-65
2022/04/22 08:43:43;;;;;;;2.70;0.43;;;13.40;99.90;;;;;;5033240;28;20045;-65
2022/04/22 08:50:13;;;;;;;0.70;0.40;;;13.60;99.90;;;;;;5029004;28;20041;-66
2022/04/22 08:53:22;;;;;;;4.13;0.63;;;13.60;99.90;;;;;;5028378;28;20044;-65
2022/04/22 08:56:26;;;;;;;2.58;0.38;;;13.60;99.90;;;;;;5027992;28;20048;-65
2022/04/22 08:59:30;;;;;;;0.95;0.70;;;13.50;99.90;;;;;;5022998;28;20032;-65
2022/04/22 09:02:36;;;;;;;1.05;0.40;;;13.50;99.90;;;;;;5028746;28;20046;-65
2022/04/22 09:05:42;;;;;;;0.88;0.52;;;13.50;99.90;;;;;;5031821;28;20092;-65
2022/04/22 09:08:50;;;;;;;0.88;0.30;;;13.60;99.90;;;;;;5031783;28;20049;-66
2022/04/22 09:12:14;;;;;;;0.50;0.30;;;13.50;99.90;;;;;;5032078;28;20105;-65
2022/04/22 09:15:27;;;;;;;1.23;0.20;;;13.40;99.90;;;;;;5032291;28;20049;-65
2022/04/22 09:18:35;;;;;;;0.35;0.30;;;13.40;99.90;;;;;;5031918;28;20125;-65
2022/04/22 09:21:39;;;;;;;0.85;0.28;;;13.50;99.90;;;;;;5029153;28;20060;-65
2022/04/22 09:24:53;;;;;;;0.60;0.30;;;13.50;99.90;;;;;;5025474;28;20052;-65
2022/04/22 09:28:08;;;;;;;0.40;0.40;;;13.70;99.90;;;;;;5031466;28;20491;-65
2022/04/22 09:31:11;;;;;;;0.40;0.25;;;13.90;99.90;;;;;;5031498;28;20052;-65
2022/04/22 09:34:31;;;;;;;0.77;0.50;;;14.10;99.90;;;;;;5031431;28;20040;-65
2022/04/22 09:44:39;;;;;;;0.38;0.30;;;14.70;99.90;;;;;;5032066;28;20512;-65
2022/04/22 09:47:43;;;;;;;1.05;0.30;;;14.80;99.90;;;;;;5031258;28;20060;-65
2022/04/22 09:50:54;;;;;;;0.60;0.30;;;14.90;99.90;;;;;;5030571;28;20044;-66
2022/04/22 09:54:17;;;;;;;0.47;0.32;;;15.20;99.90;;;;;;5011925;28;20393;-65
2022/04/22 09:57:23;;;;;;;1.55;0.35;;;15.40;99.90;;;;;;5011680;28;20048;-65
2022/04/22 10:00:29;;;;;;;0.30;0.28;;;15.60;99.90;;;;;;5010886;28;20032;-65
2022/04/22 10:03:35;;;;;;;0.28;0.28;;;15.80;99.90;;;;;;5016949;28;20039;-65
2022/04/22 10:06:40;;;;;;;0.95;0.30;;;15.80;99.90;;;;;;5028217;28;20036;-66
2022/04/22 10:09:46;;;;;;;0.30;0.28;;;15.90;99.90;;;;;;5030019;28;20040;-65
2022/04/22 10:12:54;;;;;;;0.30;0.20;;;16.10;99.90;;;;;;5029082;28;20294;-66
2022/04/22 10:15:59;;;;;;;0.47;0.20;;;16.20;99.90;;;;;;5030289;28;20044;-65
2022/04/22 10:19:05;;;;;;;0.38;0.20;;;16.10;99.90;;;;;;5030844;28;20048;-66
2022/04/22 10:22:10;;;;;;;0.20;0.20;;;16.20;99.90;;;;;;5029517;28;20048;-65
2022/04/22 10:25:15;;;;;;;1.58;0.60;;;16.40;99.90;;;;;;5027159;28;20032;-65
2022/04/22 10:28:20;;;;;;;0.35;0.30;;;16.30;99.90;;;;;;5026375;28;20063;-66
2022/04/22 10:31:25;;;;;;;0.65;0.50;;;16.30;99.90;;;;;;5010877;28;20040;-65
2022/04/22 10:34:43;;;;;;;3.25;0.60;;;16.30;99.90;;;;;;5025306;28;20057;-66
2022/04/22 10:37:49;;;;;;;0.65;0.40;;;16.50;99.90;;;;;;5025943;28;20048;-65
2022/04/22 10:40:54;;;;;;;0.60;0.30;;;16.80;99.90;;;;;;5025992;28;20044;-65
2022/04/22 10:47:42;;;;;;;2.50;0.40;;;17.20;99.90;;;;;;5026692;28;20048;-65
2022/04/22 10:51:03;;;;;;;0.55;0.20;;;17.50;99.90;;;;;;5022334;28;20048;-65
2022/04/22 10:54:06;;;;;;;1.95;0.30;;;17.50;99.90;;;;;;5029492;28;20119;-66
2022/04/22 10:57:16;;;;;;;0.20;0.20;;;16.90;99.90;;;;;;5022089;28;20052;-65
2022/04/22 11:00:27;;;;;;;0.90;0.20;;;17.30;99.90;;;;;;5028697;28;20044;-65
2022/04/22 11:03:36;;;;;;;0.73;0.30;;;17.40;99.90;;;;;;5028563;28;20044;-65
2022/04/22 11:06:40;;;;;;;5.65;0.30;;;16.70;99.90;;;;;;5027980;28;20056;-65
2022/04/22 11:09:45;;;;;;;0.73;0.30;;;15.80;99.90;;;;;;5027850;28;20535;-65
2022/04/22 11:12:54;;;;;;;2.15;0.40;;;16.00;99.90;;;;;;5030409;28;20048;-64
2022/04/22 11:16:07;;;;;;;0.32;0.20;;;16.90;99.90;;;;;;5031441;28;20048;-64
2022/04/22 11:19:24;;;;;;;0.65;0.20;;;17.90;99.90;;;;;;5027703;28;20052;-64
2022/04/22 11:22:56;;;;;;;1.08;0.32;;;18.70;99.90;;;;;;5023435;28;20600;-64
2022/04/22 11:26:01;;;;;;;1.77;0.20;;;18.90;99.90;;;;;;5026701;28;20381;-64
2022/04/22 11:29:10;;;;;;;0.10;0.10;;;19.10;99.90;;;;;;5028079;28;20057;-64
2022/04/22 11:32:23;;;;;;;1.88;0.50;;;18.90;99.90;;;;;;5031364;28;20048;-64
2022/04/22 11:35:33;;;;;;;0.93;0.50;;;18.40;99.90;;;;;;5029674;28;20041;-64
2022/04/22 11:38:48;;;;;;;0.40;0.28;;;17.50;99.90;;;;;;5032283;28;20416;-64
2022/04/22 11:41:53;;;;;;;1.98;0.40;;;17.00;99.90;;;;;;5025511;28;20385;-64
2022/04/22 11:45:11;;;;;;;2.67;0.25;;;16.90;99.90;;;;;;5028747;28;20064;-65
2022/04/22 11:48:24;;;;;;;1.05;0.38;;;16.70;99.90;;;;;;5026378;28;20075;-64
2022/04/22 11:51:28;;;;;;;0.30;0.30;;;16.70;99.90;;;;;;5023383;28;20040;-64
2022/04/22 11:54:34;;;;;;;1.85;0.30;;;16.60;99.90;;;;;;5027458;28;20044;-64
2022/04/22 11:57:39;;;;;;;0.85;0.30;;;16.50;99.90;;;;;;5022578;28;20124;-64
2022/04/22 12:10:59;;;;;;;;;;;14.90;99.90;;;;;;5027104;28;20040;-64
2022/04/22 12:14:03;;;;;;;5.72;0.52;;;14.20;99.90;;;;;;5025448;28;19952;-65
2022/04/22 12:17:08;;;;;;;2.05;0.30;;;14.30;99.90;;;;;;5025890;28;20056;-64
2022/04/22 12:20:13;;;;;;;0.20;0.20;;;13.80;99.90;;;;;;5027390;28;20044;-64
2022/04/22 12:23:18;;;;;;;0.40;0.30;;;13.90;99.90;;;;;;5029239;28;20507;-65
2022/04/22 12:26:23;;;;;;;0.30;0.20;;;14.10;99.90;;;;;;5024737;28;20450;-64
2022/04/22 12:29:27;;;;;;;0.35;0.28;;;14.20;99.90;;;;;;5026291;28;20385;-65
2022/04/22 12:32:32;;;;;;;2.92;1.00;;;14.40;99.90;;;;;;5026912;28;20041;-64
2022/04/22 12:35:38;;;;;;;0.60;0.20;;;14.40;99.90;;;;;;5026638;28;20057;-64
2022/04/22 12:38:42;;;;;;;0.57;0.30;;;14.50;99.90;;;;;;5020746;28;20048;-64
2022/04/22 12:41:46;;;;;;;0.52;0.47;;;14.50;99.90;;;;;;5019202;28;20057;-64
2022/04/22 12:52:20;;;;;;;1.80;0.38;;;14.80;99.90;;;;;;5028136;28;20044;-64
2022/04/22 12:55:24;;;;;;;2.10;0.43;;;14.90;99.90;;;;;;5015364;28;20037;-64
2022/04/22 12:58:29;;;;;;;1.95;0.50;;;14.80;99.90;;;;;;5031379;28;20056;-64
2022/04/22 13:01:38;;;;;;;0.50;0.40;;;14.70;99.90;;;;;;5018542;28;20053;-64
2022/04/22 13:04:54;;;;;;;0.70;0.43;;;14.40;99.90;;;;;;5026808;28;20052;-64
2022/04/22 13:08:09;;;;;;;0.93;0.50;;;14.00;99.90;;;;;;5020596;28;20045;-64
2022/04/22 13:11:13;;;;;;;2.75;2.22;;;13.80;99.90;;;;;;5028265;28;20044;-64
2022/04/22 13:14:17;;;;;;;1.70;0.60;;;13.70;99.90;;;;;;5028319;28;20480;-64
2022/04/22 13:17:26;;;;;;;1.48;0.50;;;13.70;99.90;;;;;;5026159;28;20048;-64
2022/04/22 13:20:30;;;;;;;0.77;0.38;;;13.80;99.90;;;;;;5020890;28;20044;-64
2022/04/22 13:23:36;;;;;;;4.32;3.03;;;14.00;99.90;;;;;;5024655;28;20058;-65
2022/04/22 13:26:41;;;;;;;12.88;7.85;;;14.40;99.90;;;;;;5027477;28;20049;-64
2022/04/22 13:29:46;;;;;;;6.18;3.90;;;14.90;99.90;;;;;;5022995;28;20049;-65
2022/04/22 13:32:50;;;;;;;4.97;2.88;;;15.40;99.90;;;;;;5025707;28;20073;-65
2022/04/22 13:35:54;;;;;;;6.25;3.72;;;15.90;99.90;;;;;;5030736;28;20057;-65
2022/04/22 13:38:59;;;;;;;1.88;1.30;;;16.20;99.90;;;;;;5027504;28;20041;-65
2022/04/22 13:42:04;;;;;;;2.25;0.90;;;16.30;99.90;;;;;;5029568;28;20048;-65
2022/04/22 13:55:19;;;;;;;0.68;0.40;;;15.90;99.90;;;;;;5023895;28;20574;-64
2022/04/22 13:58:23;;;;;;;0.50;0.40;;;16.10;99.90;;;;;;5028530;28;20044;-65
2022/04/22 14:01:27;;;;;;;0.40;0.30;;;16.10;99.90;;;;;;5027838;28;20040;-65
2022/04/22 14:04:32;;;;;;;3.65;0.50;;;16.10;99.90;;;;;;5028524;28;20128;-64
2022/04/22 14:07:36;;;;;;;1.92;0.50;;;16.10;99.90;;;;;;5028915;28;20048;-65
2022/04/22 14:10:40;;;;;;;2.15;0.50;;;16.10;99.90;;;;;;5025679;28;20495;-64
2022/04/22 14:13:44;;;;;;;1.55;0.50;;;16.00;99.90;;;;;;5027772;28;20099;-64
2022/04/22 14:16:50;;;;;;;0.82;0.40;;;16.00;99.90;;;;;;5028178;28;20040;-65
2022/04/22 14:19:54;;;;;;;0.65;0.32;;;16.20;99.90;;;;;;5026174;28;20029;-63
2022/04/22 14:22:59;;;;;;;0.77;0.30;;;16.40;99.90;;;;;;5029343;28;20389;-63
2022/04/22 14:26:03;;;;;;;1.65;0.60;;;16.50;99.90;;;;;;5030228;28;20048;-64
2022/04/22 14:29:07;;;;;;;0.70;0.50;;;16.50;99.90;;;;;;5027765;28;20052;-64
2022/04/22 14:32:13;;;;;;;0.70;0.45;;;16.40;99.90;;;;;;5025108;28;20044;-64
2022/04/22 14:35:17;;;;;;;1.42;0.82;;;16.20;99.90;;;;;;5027686;28;20393;-65
2022/04/22 14:38:23;;;;;;;0.93;0.43;;;16.10;99.90;;;;;;5028874;28;20040;-64
2022/04/22 14:41:27;;;;;;;0.70;0.47;;;15.90;99.90;;;;;;5026464;28;20048;-64
2022/04/22 14:44:31;;;;;;;1.38;0.50;;;15.80;99.90;;;;;;5026516;28;20200;-65
2022/04/22 14:47:35;;;;;;;1.85;0.60;;;15.80;99.90;;;;;;5027856;28;20040;-64
2022/04/22 14:50:40;;;;;;;1.40;0.52;;;15.90;99.90;;;;;;5025457;28;20033;-65
2022/04/22 14:53:45;;;;;;;1.52;0.50;;;16.00;99.90;;;;;;5028358;28;20334;-65
2022/04/22 14:56:48;;;;;;;2.00;0.60;;;16.00;99.90;;;;;;5029725;28;20056;-65
2022/04/22 14:59:53;;;;;;;0.63;0.50;;;16.00;99.90;;;;;;5029901;28;20519;-64
2022/04/22 15:02:57;;;;;;;0.90;0.45;;;16.00;99.90;;;;;;5029867;28;20040;-65
2022/04/22 15:06:02;;;;;;;3.70;0.70;;;16.00;99.90;;;;;;5029366;28;20378;-65
2022/04/22 15:09:06;;;;;;;0.68;0.55;;;16.10;99.90;;;;;;5029788;28;20032;-65
2022/04/22 15:12:10;;;;;;;1.05;0.60;;;16.10;99.90;;;;;;5028479;28;20041;-65
2022/04/22 15:15:14;;;;;;;0.70;0.45;;;16.10;99.90;;;;;;5029041;28;20404;-65
2022/04/22 15:25:04;;;;;;;1.83;0.98;;;16.60;99.90;;;;;;5030110;28;20530;-65
2022/04/22 15:28:09;;;;;;;2.22;1.00;;;16.80;99.90;;;;;;5029753;28;20057;-65
2022/04/22 15:31:14;;;;;;;1.73;0.88;;;16.90;99.90;;;;;;5029576;28;20049;-66
2022/04/22 15:34:18;;;;;;;2.45;0.95;;;16.90;99.90;;;;;;5029972;28;20052;-65
2022/04/22 15:37:22;;;;;;;3.55;1.02;;;16.90;99.90;;;;;;5029678;28;20271;-65
2022/04/22 15:40:27;;;;;;;2.67;0.70;;;16.90;99.90;;;;;;5030243;28;20044;-65
2022/04/22 15:43:33;;;;;;;2.00;0.90;;;16.80;99.90;;;;;;5029766;28;20048;-65
2022/04/22 15:46:37;;;;;;;4.13;1.08;;;16.60;99.90;;;;;;5029494;28;20045;-65
2022/04/22 15:49:41;;;;;;;20.50;2.42;;;16.30;99.90;;;;;;5029503;28;20503;-65
2022/04/22 15:52:45;;;;;;;1.70;1.25;;;16.00;99.90;;;;;;5029454;28;20048;-65
2022/04/22 15:55:50;;;;;;;1.30;0.98;;;15.80;99.90;;;;;;5028381;28;20040;-64
2022/04/22 15:58:54;;;;;;;1.20;0.80;;;15.60;99.90;;;;;;5033166;28;20044;-65
2022/04/22 16:01:58;;;;;;;3.15;1.05;;;15.40;99.90;;;;;;5032220;28;20048;-65
2022/04/22 16:05:03;;;;;;;3.28;1.10;;;15.10;99.90;;;;;;5033054;28;20048;-64
2022/04/22 16:08:12;;;;;;;1.00;0.70;;;14.80;99.90;;;;;;5030481;28;20040;-64
2022/04/22 16:18:01;;;;;;;;;;;14.30;99.90;;;;;;5032755;28;20056;-64
2022/04/22 16:21:07;;;;;;;1.75;1.20;;;14.10;99.90;;;;;;5032999;28;19920;-64
2022/04/22 16:24:11;;;;;;;2.22;1.25;;;14.00;99.90;;;;;;5032878;28;20503;-65
2022/04/22 16:27:15;;;;;;;1.48;1.27;;;13.80;99.90;;;;;;5031736;28;20400;-64
2022/04/22 16:30:19;;;;;;;3.55;1.40;;;13.70;99.90;;;;;;5031512;28;20406;-64
2022/04/22 16:33:23;;;;;;;3.13;1.30;;;13.60;99.90;;;;;;5032559;28;20044;-64
2022/04/22 16:36:27;;;;;;;3.35;1.55;;;13.60;99.90;;;;;;5031915;28;20500;-64
2022/04/22 16:39:31;;;;;;;1.85;1.00;;;13.60;99.90;;;;;;5032755;28;20049;-64
2022/04/22 16:42:38;;;;;;;1.33;0.90;;;13.60;99.90;;;;;;5032562;28;20056;-65
2022/04/22 16:45:43;;;;;;;1.40;0.90;;;13.60;99.90;;;;;;5031701;28;20416;-64
2022/04/22 16:48:47;;;;;;;2.45;1.77;;;13.60;99.90;;;;;;5032542;28;20053;-64
2022/04/22 16:51:52;;;;;;;3.25;1.75;;;13.50;99.90;;;;;;5031504;28;20523;-65
2022/04/22 16:54:56;;;;;;;2.83;2.13;;;13.60;99.90;;;;;;5032323;28;20040;-64
2022/04/22 16:58:00;;;;;;;2.88;2.20;;;13.50;99.90;;;;;;5031210;28;20048;-64
2022/04/22 17:01:04;;;;;;;3.78;2.58;;;13.50;99.90;;;;;;5031279;28;20044;-64
2022/04/22 17:04:08;;;;;;;4.85;2.20;;;13.40;99.90;;;;;;5031618;28;20048;-65
2022/04/22 17:07:12;;;;;;;1.60;1.27;;;13.40;99.90;;;;;;5030616;28;20146;-64
2022/04/22 17:10:16;;;;;;;3.60;2.30;;;13.30;99.90;;;;;;5030889;28;20388;-64
2022/04/22 17:13:21;;;;;;;53.00;26.88;;;13.30;99.90;;;;;;5029311;28;20056;-64
2022/04/22 17:23:10;;;;;;;3.33;2.95;;;13.20;99.90;;;;;;5031486;28;20045;-64
2022/04/22 17:26:16;;;;;;;2.58;2.38;;;13.20;99.90;;;;;;5029059;28;20053;-64
2022/04/22 17:29:20;;;;;;;1.73;1.40;;;13.20;99.90;;;;;;5030283;28;20044;-64
2022/04/22 17:32:28;;;;;;;2.55;2.17;;;13.10;99.90;;;;;;5031289;28;20056;-65
2022/04/22 17:35:34;;;;;;;4.22;3.45;;;13.10;99.90;;;;;;5031275;28;20033;-64
2022/04/22 17:38:40;;;;;;;16.73;2.92;;;13.00;99.90;;;;;;5031383;28;20044;-65
2022/04/22 17:41:44;;;;;;;3.25;2.25;;;13.00;99.90;;;;;;5031428;28;20048;-64
2022/04/22 17:44:49;;;;;;;3.22;1.90;;;13.00;99.90;;;;;;5031436;28;20388;-65
2022/04/22 17:47:53;;;;;;;9.30;5.47;;;13.00;99.90;;;;;;5030824;28;20044;-64
2022/04/22 17:50:57;;;;;;;4.97;3.40;;;12.90;99.90;;;;;;5031658;28;20388;-64
2022/04/22 17:54:03;;;;;;;4.85;3.63;;;12.90;99.90;;;;;;5030874;28;20594;-64
2022/04/22 17:57:08;;;;;;;6.43;3.28;;;12.80;99.90;;;;;;5030830;28;20044;-64